Airfield :
LOGIN :

Register | Disclaimer

   EN    FR    IT 

 










Legend :    VFR   Marginal VFR   IFR   Intensive IFR   Very Intensive IFR
Visi :
Ceiling :
>= 8 km
>= 3000ft
5 to 8 km
1000 to 3000 ft
1500m to 5 km
500 to 1000 ft
800 to 1500m
200 to 500 ft
< 800m
< 200 ft
Symbols :   Thunderstorms  Fog  Heavy snow  Heavy precipitations  Wind > 20 kt
SIGMETs :     Misc.  Thunderstorms  Icing  Turbulence  Mountain Waves  Volcanic Ashes






- Airport Elevation : 123 ft
- IATA code : BLQ


LIPE - Bologna Guglielmo Marconi

CURRENT METAR :
  • 301620Z 13005KT 090V230 CAVOK 34/04 Q1010

EXPIRED METARs :
  • 301550Z 14005KT 040V200 9999 FEW050 35/06 Q1010
  • 301520Z VRB03KT 9999 FEW050 35/06 Q1010
  • 301450Z VRB06KT 9999 FEW050 35/07 Q1010
  • 301420Z VRB04KT 9999 FEW050 33/14 Q1010
  • 301350Z VRB05KT 9999 FEW050 34/14 Q1011

TAF TAF LIPE
Valid from the 30 at 12:00 until the 01 at 12:00 UTC


301100Z 3012/0112 VRB05KT 9999 FEW040
BECMG 3014/3016 20010KT
BECMG 3018/3020 VRB05KT



MET'MAP, your aeronautical weather chart ! - Copyright ORBIFLY December 2007 - Disclaimer

ORBIFLY MET'MAP TEAM :

Programming & Development : Alexandra Zaïnal
Original concept : Baudouin d'Aumeries
Technical & hardware support : Manuel Goepfert
Assistance : Marc-Olivier Méhu




SOURCES & CREDITS :

   NOAA